Time;durP1;ratioP1;P1;durP2;ratioP2;P2;SDS_P1;SDS_P2;PMS_P1;PMS_P2;Temp;Humidity;BMP_temperature;BMP_pressure;BME280_temperature;BME280_humidity;BME280_pressure;Samples;Min_cycle;Max_cycle;Signal;HPM_P1;HPM_P2
2022/03/30 00:00:54;;;;;;;25.40;9.43;;;3.80;99.90;;;;;;5038937;28;20132;-88
2022/03/30 00:03:19;;;;;;;24.13;9.40;;;3.80;99.90;;;;;;5056692;28;20070;-87
2022/03/30 00:05:45;;;;;;;24.03;9.40;;;3.80;99.90;;;;;;5036805;28;20079;-87
2022/03/30 00:08:10;;;;;;;22.90;9.27;;;3.80;99.90;;;;;;5055105;28;20055;-88
2022/03/30 00:10:36;;;;;;;21.90;9.07;;;3.90;99.90;;;;;;5037205;28;20101;-87
2022/03/30 00:13:02;;;;;;;23.97;9.23;;;3.90;99.90;;;;;;5036520;28;20041;-87
2022/03/30 00:15:28;;;;;;;26.27;10.00;;;3.90;99.90;;;;;;5054942;28;20135;-88
2022/03/30 00:17:54;;;;;;;25.13;9.43;;;4.00;99.90;;;;;;5054920;28;20545;-88
2022/03/30 00:20:20;;;;;;;23.53;9.27;;;3.90;99.90;;;;;;5035917;28;20049;-87
2022/03/30 00:22:46;;;;;;;24.20;9.67;;;3.90;99.90;;;;;;5054902;28;20485;-87
2022/03/30 00:25:13;;;;;;;23.43;9.43;;;3.90;99.90;;;;;;5054490;28;20140;-88
2022/03/30 00:27:46;;;;;;;23.83;9.23;;;3.90;99.90;;;;;;5053828;28;20500;-87
2022/03/30 00:30:18;;;;;;;21.15;9.35;;;3.80;99.90;;;;;;5054391;28;20040;-88
2022/03/30 00:32:44;;;;;;;26.33;9.90;;;3.80;99.90;;;;;;5055083;28;20045;-87
2022/03/30 00:35:10;;;;;;;22.87;9.23;;;3.80;99.90;;;;;;5054459;28;20051;-87
2022/03/30 00:37:37;;;;;;;25.83;10.57;;;3.80;99.90;;;;;;5056800;28;20119;-88
2022/03/30 00:40:05;;;;;;;28.70;11.00;;;3.80;99.90;;;;;;5054542;28;20045;-88
2022/03/30 00:42:30;;;;;;;23.20;10.07;;;3.70;99.90;;;;;;5035405;28;20403;-87
2022/03/30 00:44:56;;;;;;;26.33;9.43;;;3.70;99.90;;;;;;5036918;28;20067;-87
2022/03/30 00:47:24;;;;;;;26.80;10.30;;;3.80;99.90;;;;;;5053949;28;20041;-88
2022/03/30 00:49:50;;;;;;;23.07;9.43;;;3.70;99.90;;;;;;5053714;28;20060;-87
2022/03/30 00:52:16;;;;;;;22.67;9.47;;;3.70;99.90;;;;;;5036227;28;20045;-87
2022/03/30 00:54:45;;;;;;;23.10;9.80;;;4.70;99.90;;;;;;5035836;28;20041;-87
2022/03/30 00:57:12;;;;;;;24.83;9.47;;;3.70;99.90;;;;;;5035381;28;20044;-87
2022/03/30 00:59:40;;;;;;;22.83;9.57;;;3.70;99.90;;;;;;5036107;28;20045;-87
2022/03/30 01:02:07;;;;;;;21.23;9.20;;;3.60;99.90;;;;;;5035265;28;20149;-88
2022/03/30 01:04:33;;;;;;;26.27;9.67;;;3.50;99.90;;;;;;5053796;28;20044;-88
2022/03/30 01:06:59;;;;;;;22.83;9.50;;;3.50;99.90;;;;;;5036270;28;20037;-88
2022/03/30 01:09:25;;;;;;;26.10;9.87;;;3.50;99.90;;;;;;5053163;28;20053;-87
2022/03/30 01:11:55;;;;;;;24.37;9.47;;;3.40;99.90;;;;;;5036035;28;20037;-88
2022/03/30 01:14:22;;;;;;;25.63;9.00;;;3.40;99.90;;;;;;5035736;28;20558;-88
2022/03/30 01:16:48;;;;;;;25.10;9.67;;;3.40;99.90;;;;;;5034741;28;20052;-87
2022/03/30 01:19:14;;;;;;;28.50;9.80;;;3.30;99.90;;;;;;5035594;28;20052;-88
2022/03/30 01:21:42;;;;;;;25.37;9.50;;;3.30;99.90;;;;;;5054042;28;20068;-87
2022/03/30 01:24:09;;;;;;;24.03;9.73;;;3.20;99.90;;;;;;5035148;28;20037;-87
2022/03/30 01:26:35;;;;;;;25.07;9.90;;;3.20;99.90;;;;;;5035478;28;20504;-88
2022/03/30 01:32:24;;;;;;;26.17;10.27;;;3.20;99.90;;;;;;5035759;28;20068;-88
2022/03/30 01:34:35;;;;;;;26.20;10.67;;;3.10;99.90;;;;;;5053204;28;20618;-88
2022/03/30 01:37:06;;;;;;;26.13;9.93;;;3.10;99.90;;;;;;5053642;28;20151;-88
2022/03/30 01:39:32;;;;;;;24.70;9.57;;;3.10;99.90;;;;;;5054057;28;20041;-87
2022/03/30 01:41:58;;;;;;;24.60;9.80;;;3.10;99.90;;;;;;5035532;28;20053;-88
2022/03/30 01:44:24;;;;;;;22.20;9.57;;;3.00;99.90;;;;;;5034282;28;20060;-87
2022/03/30 01:46:50;;;;;;;26.33;9.67;;;3.00;99.90;;;;;;5053395;28;20052;-88
2022/03/30 01:49:21;;;;;;;23.00;9.57;;;2.90;99.90;;;;;;5053158;28;20041;-88
2022/03/30 01:51:50;;;;;;;24.87;9.90;;;2.90;99.90;;;;;;5034353;28;20051;-88
2022/03/30 01:54:17;;;;;;;29.23;10.13;;;2.90;99.90;;;;;;5052514;28;20056;-87
2022/03/30 01:56:43;;;;;;;26.67;9.27;;;2.90;99.90;;;;;;5035120;28;20132;-88
2022/03/30 01:59:08;;;;;;;29.57;10.30;;;2.80;99.90;;;;;;5035179;28;20136;-88
2022/03/30 02:01:34;;;;;;;25.60;9.47;;;2.70;99.90;;;;;;5040803;28;20485;-87
2022/03/30 02:04:00;;;;;;;23.00;9.93;;;2.70;99.90;;;;;;5014570;28;20046;-87
2022/03/30 02:06:26;;;;;;;23.37;9.57;;;2.70;99.90;;;;;;5014111;28;20120;-87
2022/03/30 02:08:52;;;;;;;24.43;10.80;;;2.70;99.90;;;;;;5033040;28;20124;-88
2022/03/30 02:11:18;;;;;;;23.93;10.23;;;2.60;99.90;;;;;;5033098;28;20069;-88
2022/03/30 02:13:44;;;;;;;25.73;10.03;;;2.60;99.90;;;;;;5032598;28;20099;-88
2022/03/30 02:16:09;;;;;;;26.67;10.20;;;2.50;99.90;;;;;;5032316;28;20042;-88
2022/03/30 02:18:35;;;;;;;27.70;9.97;;;2.60;99.90;;;;;;5032476;28;20052;-88
2022/03/30 02:21:01;;;;;;;24.57;10.53;;;2.40;99.90;;;;;;5014815;28;20041;-88
2022/03/30 02:23:27;;;;;;;22.07;9.77;;;2.40;99.90;;;;;;5015145;28;20053;-88
2022/03/30 02:25:52;;;;;;;27.70;10.43;;;2.40;99.90;;;;;;5015394;28;20041;-87
2022/03/30 02:28:18;;;;;;;26.40;10.43;;;2.40;99.90;;;;;;5013662;28;20096;-88
2022/03/30 02:30:44;;;;;;;24.53;10.07;;;2.40;99.90;;;;;;5014264;28;20079;-87
2022/03/30 02:33:10;;;;;;;23.63;9.40;;;2.50;99.90;;;;;;5032585;28;20077;-87
2022/03/30 02:35:35;;;;;;;27.30;11.13;;;2.60;99.90;;;;;;5014537;28;20455;-88
2022/03/30 02:38:01;;;;;;;25.07;10.83;;;2.60;99.90;;;;;;5014948;28;20042;-87
2022/03/30 02:40:27;;;;;;;27.73;11.07;;;2.70;99.90;;;;;;5034706;28;20057;-88
2022/03/30 02:42:52;;;;;;;25.17;11.33;;;2.70;99.90;;;;;;5032329;28;20083;-88
2022/03/30 02:45:19;;;;;;;26.37;10.53;;;2.80;99.90;;;;;;5033712;28;20045;-88
2022/03/30 02:50:28;;;;;;;;;;;3.00;99.90;;;;;;5035575;28;20041;-88
2022/03/30 02:52:54;;;;;;;27.20;10.53;;;3.00;99.90;;;;;;5015029;28;20316;-88
2022/03/30 02:55:20;;;;;;;24.67;10.23;;;3.10;99.90;;;;;;5031701;28;20083;-88
2022/03/30 02:57:46;;;;;;;25.93;11.40;;;4.20;99.90;;;;;;5033201;28;20481;-88
2022/03/30 03:00:12;;;;;;;30.90;11.90;;;3.10;99.90;;;;;;5015032;28;20041;-88
2022/03/30 03:02:37;;;;;;;25.73;10.97;;;3.20;99.90;;;;;;5031975;28;20044;-88
2022/03/30 03:05:03;;;;;;;31.40;12.67;;;3.30;99.90;;;;;;5031968;28;20041;-87
2022/03/30 03:07:29;;;;;;;27.63;11.40;;;3.30;99.90;;;;;;5032095;28;20046;-88
2022/03/30 03:09:55;;;;;;;23.70;11.13;;;3.30;99.90;;;;;;5031795;28;20497;-87
2022/03/30 03:12:21;;;;;;;29.30;11.50;;;3.40;99.90;;;;;;5032394;28;20088;-88
2022/03/30 03:14:46;;;;;;;26.30;12.00;;;3.40;99.90;;;;;;5014455;28;20056;-88
2022/03/30 03:17:12;;;;;;;26.87;11.60;;;3.30;99.90;;;;;;5030972;28;20088;-88
2022/03/30 03:19:38;;;;;;;29.17;11.90;;;3.40;99.90;;;;;;5032395;28;20041;-88
2022/03/30 03:22:04;;;;;;;29.70;11.57;;;3.40;99.90;;;;;;5014977;28;20111;-88
2022/03/30 03:24:30;;;;;;;29.13;11.37;;;3.40;99.90;;;;;;5031632;28;20042;-88
2022/03/30 03:26:56;;;;;;;29.10;12.07;;;3.40;99.90;;;;;;5015809;28;20504;-88
2022/03/30 03:29:21;;;;;;;30.43;11.43;;;3.50;99.90;;;;;;5035750;28;20049;-88
2022/03/30 03:31:47;;;;;;;26.97;11.37;;;3.50;99.90;;;;;;5017855;28;20128;-88
2022/03/30 03:34:12;;;;;;;31.27;12.27;;;3.50;99.90;;;;;;5035324;28;20056;-88
2022/03/30 03:36:38;;;;;;;28.60;11.67;;;3.60;99.90;;;;;;5018197;28;20037;-88
2022/03/30 03:39:04;;;;;;;32.03;12.13;;;3.60;99.90;;;;;;5035389;28;20049;-88
2022/03/30 03:41:29;;;;;;;26.50;11.77;;;3.60;99.90;;;;;;5019185;28;20538;-88
2022/03/30 03:43:55;;;;;;;30.60;12.27;;;3.70;99.90;;;;;;5037735;28;20055;-88
2022/03/30 03:46:21;;;;;;;28.90;12.43;;;3.70;99.90;;;;;;5035220;28;20045;-88
2022/03/30 03:48:46;;;;;;;32.33;13.30;;;3.70;99.90;;;;;;5018050;28;20132;-88
2022/03/30 03:51:12;;;;;;;30.40;13.43;;;3.80;99.90;;;;;;5033475;28;20079;-88
2022/03/30 03:53:37;;;;;;;32.67;13.50;;;3.80;99.90;;;;;;5035608;28;20049;-88
2022/03/30 03:56:04;;;;;;;31.33;14.07;;;3.90;99.90;;;;;;5017914;28;20120;-88
2022/03/30 03:58:29;;;;;;;30.03;12.70;;;3.90;99.90;;;;;;5034644;28;20392;-88
2022/03/30 04:00:56;;;;;;;30.57;13.20;;;3.90;99.90;;;;;;5037154;28;20052;-88
2022/03/30 04:03:21;;;;;;;30.03;13.13;;;3.90;99.90;;;;;;5053225;28;20045;-88
2022/03/30 04:05:47;;;;;;;28.03;12.30;;;4.00;99.90;;;;;;5052769;28;20452;-88
2022/03/30 04:08:12;;;;;;;26.07;11.50;;;4.00;99.90;;;;;;5053561;28;20182;-88
2022/03/30 04:10:38;;;;;;;25.17;11.67;;;4.00;99.90;;;;;;5055211;28;20076;-87
2022/03/30 04:13:07;;;;;;;29.53;12.37;;;4.10;99.90;;;;;;5053314;28;20075;-87
2022/03/30 04:15:40;;;;;;;27.57;11.47;;;4.10;99.90;;;;;;5054939;28;20130;-88
2022/03/30 04:18:07;;;;;;;31.43;12.70;;;4.10;99.90;;;;;;5054091;28;20056;-88
2022/03/30 04:20:33;;;;;;;28.83;12.40;;;4.10;99.90;;;;;;5054536;28;20116;-88
2022/03/30 04:23:00;;;;;;;26.77;11.50;;;4.20;99.90;;;;;;5053964;28;20124;-88
2022/03/30 04:25:26;;;;;;;26.17;11.37;;;4.20;99.90;;;;;;5053430;28;20056;-88
2022/03/30 04:27:53;;;;;;;28.67;12.27;;;4.20;99.90;;;;;;5054212;28;20043;-88
2022/03/30 04:30:20;;;;;;;28.63;12.97;;;4.20;99.90;;;;;;5054574;28;20055;-87
2022/03/30 04:32:46;;;;;;;27.10;13.27;;;4.20;99.90;;;;;;5053936;28;20037;-88
2022/03/30 04:35:13;;;;;;;26.73;11.70;;;4.20;99.90;;;;;;5052608;28;20043;-88
2022/03/30 04:37:40;;;;;;;26.53;11.70;;;4.20;99.90;;;;;;5054764;28;20041;-88
2022/03/30 04:40:07;;;;;;;28.00;12.07;;;4.20;99.90;;;;;;5052125;28;20037;-88
2022/03/30 04:42:33;;;;;;;32.37;13.40;;;4.20;99.90;;;;;;5054455;28;20064;-88
2022/03/30 04:44:59;;;;;;;33.23;12.80;;;4.20;99.90;;;;;;5055290;28;20037;-88
2022/03/30 04:47:24;;;;;;;30.63;12.80;;;4.20;99.90;;;;;;5053749;28;20055;-87
2022/03/30 04:49:50;;;;;;;31.17;12.73;;;4.20;99.90;;;;;;5053306;28;20112;-88
2022/03/30 04:52:16;;;;;;;28.17;11.90;;;4.20;99.90;;;;;;5052845;28;20051;-88
2022/03/30 04:54:41;;;;;;;30.70;12.53;;;4.20;99.90;;;;;;5053617;28;20041;-89
2022/03/30 04:57:07;;;;;;;31.33;12.57;;;4.20;99.90;;;;;;5052863;28;20404;-88
2022/03/30 04:59:32;;;;;;;31.40;13.47;;;4.20;99.90;;;;;;5052832;28;20449;-88
2022/03/30 05:01:59;;;;;;;28.77;13.67;;;4.20;99.90;;;;;;5052418;28;20059;-88
2022/03/30 05:04:24;;;;;;;28.63;13.10;;;4.20;99.90;;;;;;5052774;28;20041;-88
2022/03/30 05:06:50;;;;;;;30.57;12.07;;;4.20;99.90;;;;;;5054571;28;20072;-88
2022/03/30 05:09:16;;;;;;;25.60;11.73;;;4.20;99.90;;;;;;5053188;28;20111;-88
2022/03/30 05:11:42;;;;;;;26.73;11.73;;;4.20;99.90;;;;;;5054169;28;20401;-88
2022/03/30 05:14:08;;;;;;;30.97;13.00;;;4.20;99.90;;;;;;5052784;28;20051;-88
2022/03/30 05:16:34;;;;;;;30.53;12.87;;;4.20;99.90;;;;;;5052877;28;20048;-89
2022/03/30 05:19:01;;;;;;;28.90;12.43;;;4.20;99.90;;;;;;5052296;28;20151;-88
2022/03/30 05:21:26;;;;;;;28.33;12.60;;;4.20;99.90;;;;;;5053780;28;20045;-89
2022/03/30 05:23:52;;;;;;;30.13;12.83;;;4.20;99.90;;;;;;5053326;28;20041;-88
2022/03/30 05:26:18;;;;;;;29.80;13.07;;;4.30;99.90;;;;;;5053678;28;20120;-88
2022/03/30 05:28:43;;;;;;;29.10;12.10;;;4.30;99.90;;;;;;5052378;28;20041;-89
2022/03/30 05:31:09;;;;;;;33.40;13.77;;;4.30;99.90;;;;;;5053656;28;20071;-89
2022/03/30 05:33:35;;;;;;;27.00;13.27;;;4.30;99.90;;;;;;5054380;28;20049;-88
2022/03/30 05:36:02;;;;;;;32.90;13.60;;;4.40;99.90;;;;;;5055624;28;20124;-89
2022/03/30 05:38:28;;;;;;;28.10;13.17;;;4.40;99.90;;;;;;5054889;28;20055;-89
2022/03/30 05:40:54;;;;;;;37.30;13.87;;;4.30;99.90;;;;;;5053880;28;20045;-89
2022/03/30 05:43:21;;;;;;;31.73;14.13;;;4.40;99.90;;;;;;5052777;28;20052;-88
2022/03/30 05:45:47;;;;;;;31.73;13.77;;;4.40;99.90;;;;;;5052147;28;20678;-88
2022/03/30 05:48:12;;;;;;;31.17;12.87;;;4.40;99.90;;;;;;5054113;28;20523;-88
2022/03/30 05:50:39;;;;;;;35.80;13.70;;;4.40;99.90;;;;;;5050931;28;20053;-89
2022/03/30 05:53:06;;;;;;;34.40;13.33;;;4.40;99.90;;;;;;5053785;28;20045;-88
2022/03/30 05:55:31;;;;;;;32.23;12.97;;;4.40;99.90;;;;;;5052633;28;20045;-88
2022/03/30 05:57:57;;;;;;;30.27;12.33;;;4.40;99.90;;;;;;5051023;28;20055;-88
2022/03/30 06:00:23;;;;;;;33.60;11.93;;;4.40;99.90;;;;;;5052887;28;20083;-88
2022/03/30 06:02:48;;;;;;;28.60;12.20;;;4.40;99.90;;;;;;5051825;28;20128;-88
2022/03/30 06:05:14;;;;;;;31.83;12.67;;;4.40;99.90;;;;;;5052327;28;20084;-88
2022/03/30 06:07:40;;;;;;;28.70;11.87;;;4.40;99.90;;;;;;5051690;28;20127;-88
2022/03/30 06:10:06;;;;;;;28.70;12.13;;;4.50;99.90;;;;;;5051422;28;20052;-87
2022/03/30 06:12:31;;;;;;;22.90;10.33;;;4.50;99.90;;;;;;5050538;28;20053;-88
2022/03/30 06:14:57;;;;;;;22.10;10.33;;;4.50;99.90;;;;;;5052899;28;20056;-88
2022/03/30 06:17:22;;;;;;;24.67;9.73;;;4.50;99.90;;;;;;5051009;28;20048;-88
2022/03/30 06:19:50;;;;;;;19.33;8.67;;;4.50;99.90;;;;;;5052454;28;20047;-88
2022/03/30 06:22:16;;;;;;;20.27;7.30;;;4.60;99.90;;;;;;5051647;28;20047;-88
2022/03/30 06:24:42;;;;;;;23.70;8.73;;;3.80;99.90;;;;;;5052717;28;20539;-87
2022/03/30 06:27:10;;;;;;;17.63;7.47;;;4.70;99.90;;;;;;5050932;28;20072;-88
2022/03/30 06:29:37;;;;;;;15.27;6.97;;;4.70;99.90;;;;;;5051578;28;20136;-87
2022/03/30 06:32:03;;;;;;;13.63;5.80;;;4.70;99.90;;;;;;5051573;28;20418;-88
2022/03/30 06:34:30;;;;;;;13.77;5.50;;;4.80;99.90;;;;;;5050395;28;20098;-88
2022/03/30 06:36:55;;;;;;;12.93;4.77;;;4.90;99.90;;;;;;5052794;28;20077;-88
2022/03/30 06:39:21;;;;;;;10.60;3.67;;;4.90;99.90;;;;;;5051151;28;20056;-87
2022/03/30 06:41:48;;;;;;;8.07;2.90;;;4.90;99.90;;;;;;5050396;28;20080;-89
2022/03/30 06:44:19;;;;;;;9.63;2.80;;;4.90;99.90;;;;;;5050636;28;20052;-89
2022/03/30 06:46:48;;;;;;;7.20;2.50;;;5.00;99.90;;;;;;5014846;28;20396;-91
2022/03/30 06:49:25;;;;;;;7.30;2.43;;;4.90;99.90;;;;;;5032521;28;20073;-89
2022/03/30 06:52:00;;;;;;;7.53;2.50;;;5.20;99.90;;;;;;5023206;28;20440;-87
2022/03/30 06:54:26;;;;;;;6.93;2.60;;;4.70;99.90;;;;;;5013471;28;20076;-88
2022/03/30 06:56:51;;;;;;;8.33;2.70;;;4.90;99.90;;;;;;5014803;28;20546;-89
2022/03/30 06:59:25;;;;;;;7.93;2.50;;;4.60;99.90;;;;;;5032599;28;20111;-90
2022/03/30 07:01:51;;;;;;;8.35;2.65;;;4.80;99.90;;;;;;5032575;28;20417;-88
2022/03/30 07:04:23;;;;;;;6.83;2.40;;;5.40;99.90;;;;;;5018246;28;20497;-89
2022/03/30 07:12:35;;;;;;;7.57;2.70;;;4.90;99.90;;;;;;5036306;28;20135;-90
2022/03/30 07:15:01;;;;;;;7.50;2.67;;;5.10;99.90;;;;;;5035221;28;20077;-88
2022/03/30 07:17:41;;;;;;;8.93;2.50;;;6.60;99.90;;;;;;5045013;28;20045;-87
2022/03/30 07:20:24;;;;;;;6.17;2.00;;;5.40;99.90;;;;;;5069140;28;20052;-87
2022/03/30 07:23:03;;;;;;;6.82;2.00;;;5.20;99.90;;;;;;5074873;28;20424;-87
2022/03/30 07:25:30;;;;;;;6.73;1.80;;;5.30;99.90;;;;;;5075660;28;20047;-87
2022/03/30 07:27:59;;;;;;;5.80;2.10;;;5.10;99.90;;;;;;5076362;28;20044;-87
2022/03/30 07:30:25;;;;;;;5.70;2.00;;;5.30;99.90;;;;;;5057097;28;20048;-87
2022/03/30 07:32:53;;;;;;;6.93;1.97;;;6.00;99.90;;;;;;5075734;28;20075;-86
2022/03/30 07:35:22;;;;;;;6.30;1.97;;;5.30;99.90;;;;;;5057408;28;20566;-87
2022/03/30 07:37:48;;;;;;;6.07;1.90;;;5.70;99.90;;;;;;5074545;28;20459;-87
2022/03/30 07:40:18;;;;;;;5.87;2.10;;;5.40;99.90;;;;;;5074878;28;20450;-86
2022/03/30 07:42:46;;;;;;;6.13;1.80;;;5.50;99.90;;;;;;5057323;28;20492;-87
2022/03/30 07:45:12;;;;;;;4.77;1.80;;;5.50;99.90;;;;;;5056514;28;20559;-87
2022/03/30 07:47:44;;;;;;;6.03;1.70;;;5.60;99.90;;;;;;5057499;28;20068;-87
2022/03/30 07:50:16;;;;;;;4.73;1.60;;;5.80;99.90;;;;;;5057017;28;20152;-87
2022/03/30 07:52:42;;;;;;;3.97;1.50;;;6.70;99.90;;;;;;5058286;28;20063;-87
2022/03/30 07:55:11;;;;;;;4.93;1.50;;;7.00;99.90;;;;;;5075149;28;20487;-87
2022/03/30 07:57:37;;;;;;;4.80;1.50;;;5.60;99.90;;;;;;5056693;28;20412;-87
2022/03/30 08:00:21;;;;;;;5.07;1.70;;;5.70;99.90;;;;;;5057302;28;20555;-87
2022/03/30 08:03:08;;;;;;;4.22;1.40;;;5.70;99.90;;;;;;5075660;28;20099;-89
2022/03/30 08:05:34;;;;;;;4.43;1.60;;;5.70;99.90;;;;;;5056452;28;20143;-91
2022/03/30 08:08:15;;;;;;;5.40;1.60;;;5.70;99.90;;;;;;5074873;28;20123;-91
2022/03/30 08:10:56;;;;;;;6.00;2.07;;;6.50;99.90;;;;;;5057407;28;20040;-91
2022/03/30 08:13:22;;;;;;;4.90;1.90;;;5.60;99.90;;;;;;5073188;28;20041;-90
2022/03/30 08:15:47;;;;;;;3.87;1.50;;;5.50;99.90;;;;;;5057395;28;20059;-90
2022/03/30 08:18:28;;;;;;;5.40;1.97;;;5.50;99.90;;;;;;5055909;28;20609;-90
2022/03/30 08:23:40;;;;;;;5.43;1.87;;;5.50;99.90;;;;;;5075375;28;20139;-88
2022/03/30 08:26:06;;;;;;;5.18;1.65;;;5.50;99.90;;;;;;5075335;28;20076;-90
2022/03/30 08:28:35;;;;;;;4.87;1.57;;;5.60;99.90;;;;;;5045899;28;20438;-91
2022/03/30 08:31:00;;;;;;;5.00;1.70;;;5.60;99.90;;;;;;5037765;28;20045;-90
2022/03/30 08:33:27;;;;;;;5.90;1.80;;;5.60;99.90;;;;;;5036423;28;20029;-90
2022/03/30 08:35:59;;;;;;;4.67;1.70;;;5.80;99.90;;;;;;5055136;28;20484;-89
2022/03/30 08:38:24;;;;;;;5.60;1.80;;;6.00;99.90;;;;;;5054394;28;20044;-90
2022/03/30 08:40:52;;;;;;;4.93;1.60;;;6.00;99.90;;;;;;5035841;28;20052;-86
2022/03/30 08:43:18;;;;;;;4.70;1.77;;;6.10;99.90;;;;;;5036248;28;20102;-84
2022/03/30 08:45:46;;;;;;;4.13;1.53;;;6.20;99.90;;;;;;5054554;28;20455;-87
2022/03/30 08:48:21;;;;;;;6.75;1.65;;;6.10;99.90;;;;;;5053691;28;20059;-87
2022/03/30 08:50:49;;;;;;;4.93;1.83;;;6.50;99.90;;;;;;5054359;28;20422;-88
2022/03/30 08:53:16;;;;;;;4.47;1.40;;;6.30;99.90;;;;;;5055817;28;20044;-87
2022/03/30 08:55:41;;;;;;;5.37;1.60;;;6.70;99.90;;;;;;5037927;28;20045;-89
2022/03/30 08:58:07;;;;;;;5.03;1.70;;;6.30;99.90;;;;;;5054608;28;20047;-88
2022/03/30 09:00:39;;;;;;;5.10;1.60;;;6.50;99.90;;;;;;5035385;28;20045;-91
2022/03/30 09:03:17;;;;;;;6.50;1.75;;;6.50;99.90;;;;;;5054134;28;20564;-90
2022/03/30 09:05:46;;;;;;;4.37;1.60;;;6.50;99.90;;;;;;5036147;28;20094;-90
2022/03/30 09:08:27;;;;;;;4.03;1.30;;;7.40;99.90;;;;;;5035592;28;20076;-87
2022/03/30 09:11:53;;;;;;;4.80;1.55;;;6.70;99.90;;;;;;5036160;28;20393;-87
2022/03/30 09:14:32;;;;;;;6.77;1.70;;;6.80;99.90;;;;;;5030866;28;20133;-87
2022/03/30 09:17:02;;;;;;;5.85;1.80;;;6.90;99.90;;;;;;5035762;28;20055;-87
2022/03/30 09:19:30;;;;;;;5.07;1.67;;;6.90;99.90;;;;;;5053755;28;20127;-87
2022/03/30 09:22:02;;;;;;;4.67;1.70;;;6.90;99.90;;;;;;5035842;28;20041;-90
2022/03/30 09:24:42;;;;;;;6.80;1.75;;;7.10;99.90;;;;;;5035918;28;20498;-88
2022/03/30 09:27:08;;;;;;;6.15;1.80;;;8.30;99.90;;;;;;5036014;28;20053;-88
2022/03/30 09:29:46;;;;;;;3.20;1.38;;;7.20;99.90;;;;;;5052949;28;20048;-89
2022/03/30 09:32:19;;;;;;;7.00;1.77;;;7.80;99.90;;;;;;5053524;28;20037;-89
2022/03/30 09:35:04;;;;;;;6.20;2.00;;;7.30;99.90;;;;;;5035993;28;20048;-89
2022/03/30 09:37:29;;;;;;;6.20;1.55;;;6.90;99.90;;;;;;5053137;28;20102;-89
2022/03/30 09:39:55;;;;;;;5.38;1.50;;;7.50;99.90;;;;;;5035431;28;20045;-87
2022/03/30 09:42:22;;;;;;;6.68;1.90;;;7.20;99.90;;;;;;5025393;28;20050;-87
2022/03/30 09:44:53;;;;;;;6.00;1.70;;;7.30;99.90;;;;;;5012223;28;20054;-90
2022/03/30 09:47:20;;;;;;;7.00;1.80;;;7.40;99.90;;;;;;5019500;28;20111;-89
2022/03/30 09:49:54;;;;;;;5.72;1.80;;;7.50;99.90;;;;;;5058270;23;20053;-89
2022/03/30 09:52:52;;;;;;;;;;;7.60;99.90;;;;;;5053038;22;20053;-89
2022/03/30 09:55:57;;;;;;;8.05;1.70;;;7.70;99.90;;;;;;4970487;28;19922;-89
2022/03/30 09:58:34;;;;;;;7.07;2.00;;;7.50;99.90;;;;;;4976683;28;20055;-88
2022/03/30 10:01:17;;;;;;;5.97;1.80;;;7.80;99.90;;;;;;4964617;28;20040;-88
2022/03/30 10:04:02;;;;;;;6.33;1.60;;;7.30;99.90;;;;;;4963969;28;20043;-89
2022/03/30 10:06:46;;;;;;;5.70;1.65;;;7.60;99.90;;;;;;4947683;28;20633;-88
2022/03/30 10:09:13;;;;;;;;;;;8.00;99.90;;;;;;4963379;28;20043;-88
2022/03/30 10:11:39;;;;;;;11.40;1.88;;;8.00;99.90;;;;;;4948109;28;19922;-86
2022/03/30 10:14:10;;;;;;;6.97;1.80;;;8.00;99.90;;;;;;4957990;28;20046;-91
2022/03/30 10:16:36;;;;;;;5.53;1.60;;;8.40;99.90;;;;;;4969294;28;20105;-89
2022/03/30 10:19:01;;;;;;;6.22;1.60;;;8.40;99.90;;;;;;4961689;28;20117;-88
2022/03/30 10:22:01;;;;;;;8.20;2.10;;;8.40;99.90;;;;;;4973249;28;20046;-88
2022/03/30 10:24:58;;;;;;;;;;;;;;;;;;;;;
2022/03/30 10:27:39;;;;;;;5.57;1.60;;;8.70;99.90;;;;;;4954594;28;20066;-95
2022/03/30 10:30:07;;;;;;;6.03;1.70;;;8.60;99.90;;;;;;4965771;28;20051;-89
2022/03/30 10:32:53;;;;;;;5.78;1.60;;;8.20;99.90;;;;;;4944509;28;20044;-89
2022/03/30 10:35:20;;;;;;;6.32;1.75;;;8.80;99.90;;;;;;4963536;28;20047;-89
2022/03/30 10:37:59;;;;;;;6.68;1.80;;;9.10;99.90;;;;;;4941964;28;20047;-89
2022/03/30 10:40:30;;;;;;;6.72;1.80;;;8.20;99.90;;;;;;4953632;29;20054;-89
2022/03/30 10:42:59;;;;;;;5.45;1.60;;;8.40;99.90;;;;;;4952787;28;20167;-89
2022/03/30 10:45:58;;;;;;;6.60;1.90;;;8.30;99.90;;;;;;4965634;28;20057;-91
2022/03/30 10:48:30;;;;;;;7.20;1.77;;;8.40;99.90;;;;;;4944391;28;20071;-91
2022/03/30 10:51:10;;;;;;;6.18;1.80;;;9.60;99.90;;;;;;4942649;29;20055;-90
2022/03/30 10:53:39;;;;;;;5.78;1.70;;;8.50;99.90;;;;;;4932306;29;20107;-90
2022/03/30 10:56:31;;;;;;;5.97;1.80;;;9.70;99.90;;;;;;4933969;29;20059;-90
2022/03/30 10:58:58;;;;;;;5.97;1.90;;;9.70;99.90;;;;;;4975614;28;20131;-90
2022/03/30 11:01:35;;;;;;;5.40;1.70;;;8.50;99.90;;;;;;4933569;29;20138;-90
2022/03/30 11:04:16;;;;;;;6.53;1.80;;;9.50;99.90;;;;;;4937213;29;20163;-90
2022/03/30 11:07:15;;;;;;;6.10;1.67;;;8.40;99.90;;;;;;4936170;29;20496;-92
2022/03/30 11:10:51;;;;;;;5.70;1.70;;;8.90;99.90;;;;;;4936321;28;20047;-89
2022/03/30 11:13:29;;;;;;;5.35;1.70;;;9.70;99.90;;;;;;4879754;29;20436;-91
2022/03/30 11:16:11;;;;;;;4.70;1.77;;;8.40;99.90;;;;;;4895053;29;20116;-93
2022/03/30 11:18:53;;;;;;;6.45;1.70;;;9.70;99.90;;;;;;4923899;29;20044;-89
2022/03/30 11:21:30;;;;;;;5.70;1.65;;;9.00;99.90;;;;;;4935046;29;20055;-87
2022/03/30 11:24:32;;;;;;;5.93;2.03;;;9.70;99.90;;;;;;4934126;29;20051;-87
2022/03/30 11:27:01;;;;;;;5.97;1.73;;;8.80;99.90;;;;;;4933776;29;20056;-87
2022/03/30 11:29:42;;;;;;;5.28;1.90;;;9.00;99.90;;;;;;4933835;29;20051;-89
2022/03/30 11:32:23;;;;;;;5.80;1.73;;;9.50;99.90;;;;;;4933863;29;20488;-89
2022/03/30 11:34:56;;;;;;;5.93;1.67;;;10.00;99.90;;;;;;4933906;29;20051;-88
2022/03/30 11:37:27;;;;;;;6.28;2.00;;;8.90;99.90;;;;;;4932907;29;20130;-89
2022/03/30 11:40:08;;;;;;;6.75;2.38;;;8.90;99.90;;;;;;4939879;29;20476;-89
2022/03/30 11:42:34;;;;;;;6.45;2.00;;;8.80;99.90;;;;;;4941147;29;20051;-87
2022/03/30 11:45:12;;;;;;;5.95;1.98;;;8.60;99.90;;;;;;4951520;28;20114;-91
2022/03/30 11:47:55;;;;;;;6.40;2.00;;;8.60;99.90;;;;;;4985286;28;20069;-92
2022/03/30 11:50:43;;;;;;;5.28;1.73;;;8.60;99.90;;;;;;4971199;28;20043;-89
2022/03/30 11:53:18;;;;;;;5.93;1.80;;;8.70;99.90;;;;;;4956461;29;20384;-90
2022/03/30 11:56:07;;;;;;;6.38;1.95;;;8.50;99.90;;;;;;4951256;29;20171;-90
2022/03/30 11:58:38;;;;;;;5.30;1.75;;;8.50;99.90;;;;;;4947158;29;20046;-90
2022/03/30 12:01:07;;;;;;;6.63;1.98;;;8.40;99.90;;;;;;4968819;28;20055;-90
2022/03/30 12:03:50;;;;;;;5.85;1.90;;;8.40;99.90;;;;;;4981884;28;20055;-91
2022/03/30 12:06:18;;;;;;;7.00;2.00;;;8.50;99.90;;;;;;4946266;29;20038;-90
2022/03/30 12:08:48;;;;;;;6.85;1.77;;;8.40;99.90;;;;;;4945886;29;20051;-90
2022/03/30 12:11:19;;;;;;;4.32;1.73;;;8.30;99.90;;;;;;4945903;29;20085;-88
2022/03/30 12:13:50;;;;;;;3.85;1.55;;;8.40;99.90;;;;;;4961877;28;20091;-88
2022/03/30 12:16:19;;;;;;;6.30;1.70;;;8.20;99.90;;;;;;4976424;28;20043;-94
2022/03/30 12:19:05;;;;;;;6.80;2.00;;;8.50;99.90;;;;;;4961443;28;20051;-87
2022/03/30 12:21:45;;;;;;;5.88;1.83;;;8.70;99.90;;;;;;4962655;28;20058;-89
2022/03/30 12:24:11;;;;;;;4.53;1.55;;;8.70;99.90;;;;;;4963169;28;20080;-88
2022/03/30 12:26:37;;;;;;;5.15;1.70;;;8.50;99.90;;;;;;4944200;29;20078;-87
2022/03/30 12:29:05;;;;;;;6.13;2.03;;;8.80;99.90;;;;;;4961566;28;20483;-87
2022/03/30 12:31:45;;;;;;;6.25;1.90;;;8.90;99.90;;;;;;4947092;29;20122;-88
2022/03/30 12:34:19;;;;;;;6.22;1.83;;;9.00;99.90;;;;;;4946116;29;20051;-89
2022/03/30 12:36:48;;;;;;;6.18;1.92;;;9.10;99.90;;;;;;4946818;29;20159;-86
2022/03/30 12:39:23;;;;;;;5.53;1.70;;;9.20;99.90;;;;;;4942154;29;20051;-86
2022/03/30 12:42:13;;;;;;;6.47;1.90;;;8.90;99.90;;;;;;4970436;28;20046;-85
2022/03/30 12:44:48;;;;;;;6.45;1.80;;;8.90;99.90;;;;;;4936439;29;20468;-85
2022/03/30 12:47:15;;;;;;;6.43;1.85;;;8.80;99.90;;;;;;4936221;29;20048;-86
2022/03/30 12:49:43;;;;;;;5.18;1.80;;;8.80;99.90;;;;;;4940788;29;20046;-86
2022/03/30 12:52:16;;;;;;;6.97;1.95;;;8.60;99.90;;;;;;4944454;29;20044;-86
2022/03/30 12:54:44;;;;;;;5.10;1.83;;;8.40;99.90;;;;;;4957729;28;20058;-86
2022/03/30 12:57:11;;;;;;;5.78;2.08;;;8.40;99.90;;;;;;4965389;28;20283;-86
2022/03/30 12:59:41;;;;;;;6.93;2.05;;;8.30;99.90;;;;;;4963320;28;20044;-86
2022/03/30 13:02:23;;;;;;;7.60;2.45;;;8.30;99.90;;;;;;4946417;28;20130;-86
2022/03/30 13:04:59;;;;;;;6.35;2.38;;;8.40;99.90;;;;;;4983554;28;20034;-86
2022/03/30 13:07:28;;;;;;;6.88;2.17;;;8.40;99.90;;;;;;4977047;28;20387;-86
2022/03/30 13:10:03;;;;;;;7.25;2.15;;;8.40;99.90;;;;;;4941079;28;20487;-86
2022/03/30 13:12:40;;;;;;;5.65;1.95;;;8.70;99.90;;;;;;4964833;28;20035;-88
2022/03/30 13:15:13;;;;;;;6.07;1.85;;;8.70;99.90;;;;;;4963779;28;20050;-91
2022/03/30 13:17:56;;;;;;;6.57;2.10;;;8.80;99.90;;;;;;4979540;28;20059;-91
2022/03/30 13:20:36;;;;;;;9.43;2.88;;;9.00;99.90;;;;;;4961705;28;20039;-88